createdAt,value
2023-02-19T00:00:45.742Z,96003
2023-02-19T00:01:55.388Z,96003
2023-02-19T00:03:04.040Z,96012
2023-02-19T00:04:12.697Z,95996
2023-02-19T00:05:21.473Z,95996
2023-02-19T00:06:29.112Z,95995
2023-02-19T00:07:37.773Z,95991
2023-02-19T00:08:47.446Z,95995
2023-02-19T00:09:56.129Z,95987
2023-02-19T00:11:04.774Z,95984
2023-02-19T00:12:13.442Z,95988
2023-02-19T00:13:22.091Z,95989
2023-02-19T00:14:31.769Z,96002
2023-02-19T00:15:39.470Z,95982
2023-02-19T00:16:49.142Z,95990
2023-02-19T00:17:58.753Z,95980
2023-02-19T00:19:06.397Z,95981
2023-02-19T00:20:15.061Z,95984
2023-02-19T00:21:23.720Z,95983
2023-02-19T00:22:33.400Z,95978
2023-02-19T00:23:43.062Z,95980
2023-02-19T00:24:50.753Z,95976
2023-02-19T00:26:08.900Z,95978
2023-02-19T00:27:11.041Z,95975
2023-02-19T00:28:19.684Z,95984
2023-02-19T00:29:29.330Z,95974
2023-02-19T00:30:38.065Z,95990
2023-02-19T00:31:46.797Z,95986
2023-02-19T00:32:56.385Z,95981
2023-02-19T00:34:06.045Z,95983
2023-02-19T00:35:14.688Z,95990
2023-02-19T00:36:24.369Z,95997
2023-02-19T00:37:32.061Z,95977
2023-02-19T00:38:40.716Z,95982
2023-02-19T00:39:49.371Z,95991
2023-02-19T00:40:58.043Z,95978
2023-02-19T00:42:07.709Z,95977
2023-02-19T00:43:16.381Z,95972
2023-02-19T00:44:25.017Z,95975
2023-02-19T00:45:34.708Z,95972
2023-02-19T00:46:42.370Z,95976
2023-02-19T00:47:51.999Z,95972
2023-02-19T00:49:00.699Z,95966
2023-02-19T00:50:10.389Z,95969
2023-02-19T00:51:20.037Z,95966
2023-02-19T00:52:27.682Z,95972
2023-02-19T00:53:36.366Z,95966
2023-02-19T00:54:46.030Z,95965
2023-02-19T00:55:54.724Z,95980
2023-02-19T00:57:03.387Z,95961
2023-02-19T00:58:12.038Z,95966
2023-02-19T00:59:21.702Z,95968
2023-02-19T01:00:31.376Z,95965
2023-02-19T01:01:39.098Z,95953
2023-02-19T01:02:48.689Z,95954
2023-02-19T01:03:58.383Z,95954
2023-02-19T01:05:07.078Z,95952
2023-02-19T01:06:15.759Z,95952
2023-02-19T01:07:24.401Z,95944
2023-02-19T01:08:33.058Z,95955
2023-02-19T01:09:42.712Z,95947
2023-02-19T01:10:49.462Z,95956
2023-02-19T01:11:58.122Z,95945
2023-02-19T01:13:07.766Z,95957
2023-02-19T01:14:16.424Z,95953
2023-02-19T01:15:25.107Z,95954
2023-02-19T01:16:33.775Z,95946
2023-02-19T01:17:42.406Z,95944
2023-02-19T01:18:52.038Z,95944
2023-02-19T01:20:01.668Z,95947
2023-02-19T01:21:11.676Z,95945
2023-02-19T01:22:21.087Z,95938
2023-02-19T01:23:28.722Z,95945
2023-02-19T01:24:37.395Z,95937
2023-02-19T01:25:47.078Z,95942
2023-02-19T01:26:55.723Z,95948
2023-02-19T01:28:04.375Z,95932
2023-02-19T01:29:15.024Z,95935
2023-02-19T01:30:23.679Z,95935
2023-02-19T01:31:33.420Z,95923
2023-02-19T01:32:43.015Z,95929
2023-02-19T01:33:52.674Z,95934
2023-02-19T01:35:02.346Z,95928
2023-02-19T01:36:10.989Z,95927
2023-02-19T01:37:20.674Z,95927
2023-02-19T01:38:30.318Z,95923
2023-02-19T01:39:38.951Z,95931
2023-02-19T01:40:48.658Z,95925
2023-02-19T01:41:56.317Z,95931
2023-02-19T01:43:05.963Z,95923
2023-02-19T01:44:15.626Z,95932
2023-02-19T01:45:23.282Z,95932
2023-02-19T01:46:31.991Z,95926
2023-02-19T01:47:41.607Z,95926
2023-02-19T01:48:50.253Z,95926
2023-02-19T01:49:59.910Z,95920
2023-02-19T01:51:08.961Z,95924
2023-02-19T01:52:17.261Z,95928
2023-02-19T01:53:26.906Z,95920
2023-02-19T01:54:36.558Z,95922
2023-02-19T01:55:46.220Z,95914
2023-02-19T01:56:53.902Z,95921
2023-02-19T01:58:02.558Z,95920
2023-02-19T01:59:12.238Z,95915
2023-02-19T02:00:19.906Z,95917
2023-02-19T02:01:29.596Z,95906
2023-02-19T02:02:40.246Z,95914
2023-02-19T02:03:47.882Z,95911
2023-02-19T02:04:57.546Z,95911
2023-02-19T02:06:04.262Z,95915
2023-02-19T02:07:12.923Z,95913
2023-02-19T02:08:21.574Z,95907
2023-02-19T02:09:30.251Z,95910
2023-02-19T02:10:39.891Z,95902
2023-02-19T02:11:47.579Z,95913
2023-02-19T02:12:57.221Z,95908
2023-02-19T02:14:06.881Z,95908
2023-02-19T02:15:14.526Z,95908
2023-02-19T02:16:24.284Z,95893
2023-02-19T02:17:33.880Z,95908
2023-02-19T02:18:42.531Z,95899
2023-02-19T02:19:52.197Z,95909
2023-02-19T02:21:00.865Z,95899
2023-02-19T02:22:09.530Z,95897
2023-02-19T02:23:19.191Z,95914
2023-02-19T02:24:26.840Z,95897
2023-02-19T02:25:36.537Z,95897
2023-02-19T02:26:46.184Z,95899
2023-02-19T02:27:54.839Z,95892
2023-02-19T02:29:04.497Z,95894
2023-02-19T02:30:12.173Z,95890
2023-02-19T02:31:19.938Z,95888
2023-02-19T02:32:29.546Z,95895
2023-02-19T02:33:37.206Z,95902
2023-02-19T02:34:45.878Z,95904
2023-02-19T02:35:53.524Z,95898
2023-02-19T02:37:03.211Z,95889
2023-02-19T02:38:12.878Z,95891
2023-02-19T02:39:21.518Z,95896
2023-02-19T02:40:31.168Z,95889
2023-02-19T02:41:41.848Z,95890
2023-02-19T02:42:49.504Z,95890
2023-02-19T02:43:59.161Z,95884
2023-02-19T02:45:07.817Z,95887
2023-02-19T02:46:16.451Z,95883
2023-02-19T02:47:26.142Z,95876
2023-02-19T02:48:33.799Z,95885
2023-02-19T02:49:42.453Z,95884
2023-02-19T02:50:52.122Z,95882
2023-02-19T02:52:00.799Z,95883
2023-02-19T02:53:10.496Z,95885
2023-02-19T02:54:19.153Z,95877
2023-02-19T02:55:27.792Z,95864
2023-02-19T02:56:37.473Z,95862
2023-02-19T02:57:47.122Z,95866
2023-02-19T02:58:56.788Z,95864
2023-02-19T03:00:06.471Z,95862
2023-02-19T03:01:14.251Z,95864
2023-02-19T03:02:23.887Z,95849
2023-02-19T03:03:32.459Z,95858
2023-02-19T03:04:41.134Z,95859
2023-02-19T03:05:50.782Z,95851
2023-02-19T03:06:58.461Z,95849
2023-02-19T03:08:07.107Z,95860
2023-02-19T03:09:16.750Z,95852
2023-02-19T03:10:25.390Z,95848
2023-02-19T03:11:36.068Z,95848
2023-02-19T03:12:44.719Z,95844
2023-02-19T03:13:53.361Z,95844
2023-02-19T03:15:03.049Z,95840
2023-02-19T03:16:10.727Z,95856
2023-02-19T03:17:20.534Z,95874
2023-02-19T03:18:30.135Z,95852
2023-02-19T03:19:39.795Z,95843
2023-02-19T03:20:48.452Z,95836
2023-02-19T03:21:58.134Z,95848
2023-02-19T03:23:07.791Z,95851
2023-02-19T03:24:16.492Z,95858
2023-02-19T03:25:24.131Z,95852
2023-02-19T03:26:33.764Z,95843
2023-02-19T03:27:43.443Z,95857
2023-02-19T03:28:51.091Z,95841
2023-02-19T03:30:00.829Z,95838
2023-02-19T03:31:09.886Z,95843
2023-02-19T03:32:19.252Z,95841
2023-02-19T03:33:28.892Z,95850
2023-02-19T03:34:37.535Z,95847
2023-02-19T03:35:47.210Z,95845
2023-02-19T03:36:56.935Z,95842
2023-02-19T03:38:05.581Z,95859
2023-02-19T03:39:13.222Z,95872
2023-02-19T03:40:21.880Z,95850
2023-02-19T03:41:30.528Z,95850
2023-02-19T03:42:40.206Z,95851
2023-02-19T03:43:47.860Z,95873
2023-02-19T03:44:56.501Z,95851
2023-02-19T03:46:06.176Z,95847
2023-02-19T03:47:13.801Z,95848
2023-02-19T03:48:22.455Z,95853
2023-02-19T03:49:31.107Z,95859
2023-02-19T03:50:40.760Z,95853
2023-02-19T03:51:50.424Z,95862
2023-02-19T03:53:00.100Z,95844
2023-02-19T03:54:08.729Z,95835
2023-02-19T03:55:18.394Z,95854
2023-02-19T03:56:26.038Z,95841
2023-02-19T03:57:34.717Z,95850
2023-02-19T03:58:43.366Z,95848
2023-02-19T03:59:53.023Z,95842
2023-02-19T04:01:02.679Z,95844
2023-02-19T04:02:12.368Z,95835
2023-02-19T04:03:22.009Z,95832
2023-02-19T04:04:31.703Z,95841
2023-02-19T04:05:41.328Z,95837
2023-02-19T04:06:50.989Z,95848
2023-02-19T04:07:59.669Z,95850
2023-02-19T04:09:09.334Z,95843
2023-02-19T04:10:19.000Z,95845
2023-02-19T04:11:27.640Z,95831
2023-02-19T04:12:37.333Z,95845
2023-02-19T04:13:44.960Z,95827
2023-02-19T04:14:54.623Z,95826
2023-02-19T04:16:03.314Z,95837
2023-02-19T04:17:10.958Z,95833
2023-02-19T04:18:20.643Z,95830
2023-02-19T04:19:29.282Z,95830
2023-02-19T04:20:37.925Z,95834
2023-02-19T04:21:46.574Z,95835
2023-02-19T04:22:55.253Z,95838
2023-02-19T04:24:03.897Z,95833
2023-02-19T04:25:13.608Z,95813
2023-02-19T04:26:23.254Z,95818
2023-02-19T04:27:30.916Z,95818
2023-02-19T04:28:39.564Z,95825
2023-02-19T04:29:48.217Z,95832
2023-02-19T04:30:57.911Z,95824
2023-02-19T04:32:04.539Z,95819
2023-02-19T04:33:14.174Z,95815
2023-02-19T04:34:23.833Z,95834
2023-02-19T04:35:31.481Z,95822
2023-02-19T04:36:41.134Z,95832
2023-02-19T04:37:49.821Z,95840
2023-02-19T04:38:59.496Z,95835
2023-02-19T04:40:08.141Z,95842
2023-02-19T04:41:15.790Z,95834
2023-02-19T04:42:24.440Z,95821
2023-02-19T04:43:34.112Z,95853
2023-02-19T04:44:42.761Z,95823
2023-02-19T04:45:50.417Z,95851
2023-02-19T04:47:00.103Z,95833
2023-02-19T04:48:08.770Z,95841
2023-02-19T04:49:18.419Z,95844
2023-02-19T04:50:26.078Z,95847
2023-02-19T04:51:35.773Z,95836
2023-02-19T04:52:45.529Z,95853
2023-02-19T04:53:53.174Z,95840
2023-02-19T04:55:02.869Z,95847
2023-02-19T04:56:11.512Z,95838
2023-02-19T04:57:21.213Z,95862
2023-02-19T04:58:30.894Z,95844
2023-02-19T04:59:38.572Z,95845
2023-02-19T05:00:47.272Z,95848
2023-02-19T05:01:56.937Z,95842
2023-02-19T05:03:05.631Z,95843
2023-02-19T05:04:14.339Z,95851
2023-02-19T05:05:23.976Z,95848
2023-02-19T05:06:33.640Z,95853
2023-02-19T05:07:43.335Z,95858
2023-02-19T05:08:53.014Z,95850
2023-02-19T05:10:01.663Z,95857
2023-02-19T05:11:11.642Z,95851
2023-02-19T05:12:19.953Z,95848
2023-02-19T05:13:29.670Z,95857
2023-02-19T05:14:38.271Z,95850
2023-02-19T05:15:46.946Z,95845
2023-02-19T05:16:56.569Z,95844
2023-02-19T05:18:06.244Z,95866
2023-02-19T05:19:14.889Z,95861
2023-02-19T05:20:24.584Z,95858
2023-02-19T05:21:33.215Z,95846
2023-02-19T05:22:41.868Z,95845
2023-02-19T05:23:51.552Z,95848
2023-02-19T05:25:00.196Z,95840
2023-02-19T05:26:09.840Z,95853
2023-02-19T05:27:17.496Z,95856
2023-02-19T05:28:26.265Z,95863
2023-02-19T05:29:35.911Z,95864
2023-02-19T05:30:43.546Z,95854
2023-02-19T05:31:52.258Z,95861
2023-02-19T05:33:00.833Z,95851
2023-02-19T05:34:10.498Z,95848
2023-02-19T05:35:20.150Z,95862
2023-02-19T05:36:29.800Z,95862
2023-02-19T05:37:39.433Z,95869
2023-02-19T05:38:49.115Z,95869
2023-02-19T05:39:56.738Z,95873
2023-02-19T05:41:05.387Z,95861
2023-02-19T05:42:14.046Z,95872
2023-02-19T05:43:22.782Z,95866
2023-02-19T05:44:32.452Z,95880
2023-02-19T05:45:40.110Z,95865
2023-02-19T05:46:48.769Z,95856
2023-02-19T05:47:58.412Z,95858
2023-02-19T05:49:07.071Z,95869
2023-02-19T05:50:16.755Z,95866
2023-02-19T05:51:26.421Z,95855
2023-02-19T05:52:35.067Z,95863
2023-02-19T05:53:44.760Z,95882
2023-02-19T05:54:54.419Z,95891
2023-02-19T05:56:04.084Z,95887
2023-02-19T05:57:14.753Z,95880
2023-02-19T05:58:22.403Z,95877
2023-02-19T05:59:31.058Z,95881
2023-02-19T06:00:39.724Z,95886
2023-02-19T06:01:49.389Z,95888
2023-02-19T06:02:59.071Z,95905
2023-02-19T06:04:07.709Z,95887
2023-02-19T06:05:17.355Z,95889
2023-02-19T06:06:26.014Z,95886
2023-02-19T06:07:34.636Z,95887
2023-02-19T06:08:44.321Z,95882
2023-02-19T06:09:51.978Z,95899
2023-02-19T06:11:00.752Z,95891
2023-02-19T06:12:10.408Z,95892
2023-02-19T06:13:19.063Z,95882
2023-02-19T06:14:28.729Z,95891
2023-02-19T06:15:38.411Z,95886
2023-02-19T06:16:47.044Z,95894
2023-02-19T06:17:56.683Z,95891
2023-02-19T06:19:04.382Z,95882
2023-02-19T06:20:13.015Z,95889
2023-02-19T06:21:21.669Z,95894
2023-02-19T06:22:31.331Z,95890
2023-02-19T06:23:40.994Z,95896
2023-02-19T06:24:48.675Z,95891
2023-02-19T06:25:58.337Z,95894
2023-02-19T06:27:07.994Z,95892
2023-02-19T06:28:15.642Z,95896
2023-02-19T06:29:24.310Z,95904
2023-02-19T06:30:33.029Z,95914
2023-02-19T06:31:42.685Z,95908
2023-02-19T06:32:52.306Z,95907
2023-02-19T06:33:59.988Z,95907
2023-02-19T06:35:09.640Z,95920
2023-02-19T06:36:19.294Z,95910
2023-02-19T06:37:26.952Z,95923
2023-02-19T06:38:35.659Z,95912
2023-02-19T06:39:45.330Z,95915
2023-02-19T06:40:54.017Z,95917
2023-02-19T06:42:03.679Z,95918
2023-02-19T06:43:12.331Z,95925
2023-02-19T06:44:20.998Z,95916
2023-02-19T06:45:30.672Z,95936
2023-02-19T06:46:39.411Z,95934
2023-02-19T06:47:48.987Z,95919
2023-02-19T06:48:58.690Z,95922
2023-02-19T06:50:08.340Z,95931
2023-02-19T06:51:18.003Z,95938
2023-02-19T06:52:26.657Z,95929
2023-02-19T06:53:34.298Z,95930
2023-02-19T06:54:43.991Z,95934
2023-02-19T06:55:52.658Z,95935
2023-02-19T06:57:01.366Z,95940
2023-02-19T06:58:10.063Z,95927
2023-02-19T06:59:19.729Z,95937
2023-02-19T07:00:29.435Z,95940
2023-02-19T07:01:38.091Z,95941
2023-02-19T07:02:47.724Z,95940
2023-02-19T07:03:57.431Z,95947
2023-02-19T07:05:06.038Z,95962
2023-02-19T07:06:15.704Z,95953
2023-02-19T07:07:25.354Z,95959
2023-02-19T07:08:35.013Z,95967
2023-02-19T07:09:44.700Z,95965
2023-02-19T07:10:52.353Z,95964
2023-02-19T07:12:00.998Z,95973
2023-02-19T07:13:09.659Z,95977
2023-02-19T07:14:18.453Z,95988
2023-02-19T07:15:26.103Z,95969
2023-02-19T07:16:34.855Z,95977
2023-02-19T07:17:44.401Z,95984
2023-02-19T07:18:53.062Z,95975
2023-02-19T07:20:02.742Z,95985
2023-02-19T07:21:12.709Z,95986
2023-02-19T07:22:22.032Z,95981
2023-02-19T07:23:29.678Z,95982
2023-02-19T07:24:38.389Z,95985
2023-02-19T07:25:49.064Z,95981
2023-02-19T07:26:58.721Z,95976
2023-02-19T07:28:08.390Z,95987
2023-02-19T07:29:16.037Z,95981
2023-02-19T07:30:24.729Z,95988
2023-02-19T07:31:34.548Z,95995
2023-02-19T07:32:43.080Z,96000
2023-02-19T07:33:51.731Z,95990
2023-02-19T07:35:01.442Z,95990
2023-02-19T07:36:10.068Z,95993
2023-02-19T07:37:19.726Z,95987
2023-02-19T07:38:28.394Z,95995
2023-02-19T07:39:37.026Z,95998
2023-02-19T07:40:46.712Z,96002
2023-02-19T07:41:56.374Z,95997
2023-02-19T07:43:05.037Z,96002
2023-02-19T07:44:13.706Z,96003
2023-02-19T07:45:23.477Z,96004
2023-02-19T07:46:33.112Z,96007
2023-02-19T07:47:42.772Z,96010
2023-02-19T07:48:51.463Z,96011
2023-02-19T07:50:00.204Z,96005
2023-02-19T07:51:08.978Z,96012
2023-02-19T07:52:18.453Z,96021
2023-02-19T07:53:27.132Z,96012
2023-02-19T07:54:35.774Z,96018
2023-02-19T07:55:45.482Z,96018
2023-02-19T07:56:54.146Z,96026
2023-02-19T07:58:04.274Z,96028
2023-02-19T07:59:12.439Z,96030
2023-02-19T08:00:21.151Z,96032
2023-02-19T08:01:30.817Z,96031
2023-02-19T08:02:38.434Z,96039
2023-02-19T08:03:49.482Z,96026
2023-02-19T08:04:56.888Z,96032
2023-02-19T08:06:05.578Z,96032
2023-02-19T08:07:15.245Z,96042
2023-02-19T08:08:24.928Z,96031
2023-02-19T08:09:33.599Z,96033
2023-02-19T08:10:43.352Z,96038
2023-02-19T08:11:51.037Z,96047
2023-02-19T08:12:59.726Z,96041
2023-02-19T08:14:09.366Z,96047
2023-02-19T08:15:18.064Z,96045
2023-02-19T08:16:41.066Z,96047
2023-02-19T08:17:38.402Z,96051
2023-02-19T08:18:47.033Z,96052
2023-02-19T08:19:56.693Z,96052
2023-02-19T08:21:03.400Z,96061
2023-02-19T08:22:12.058Z,96054
2023-02-19T08:23:20.771Z,96059
2023-02-19T08:24:30.374Z,96062
2023-02-19T08:25:40.074Z,96063
2023-02-19T08:26:49.734Z,96060
2023-02-19T08:27:58.366Z,96069
2023-02-19T08:29:08.030Z,96058
2023-02-19T08:30:15.744Z,96057
2023-02-19T08:31:24.548Z,96064
2023-02-19T08:32:34.107Z,96061
2023-02-19T08:33:42.817Z,96069
2023-02-19T08:34:52.496Z,96059
2023-02-19T08:36:00.197Z,96055
2023-02-19T08:37:09.860Z,96064
2023-02-19T08:38:19.517Z,96071
2023-02-19T08:39:28.193Z,96065
2023-02-19T08:40:36.909Z,96075
2023-02-19T08:41:46.568Z,96067
2023-02-19T08:42:56.240Z,96053
2023-02-19T08:44:05.918Z,96062
2023-02-19T08:45:14.580Z,96056
2023-02-19T08:46:23.396Z,96063
2023-02-19T08:47:33.091Z,96056
2023-02-19T08:48:41.714Z,96075
2023-02-19T08:49:50.371Z,96072
2023-02-19T08:50:59.082Z,96074
2023-02-19T08:52:08.749Z,96087
2023-02-19T08:53:18.420Z,96070
2023-02-19T08:54:26.060Z,96077
2023-02-19T08:55:34.709Z,96079
2023-02-19T08:56:43.382Z,96093
2023-02-19T08:57:52.036Z,96079
2023-02-19T08:59:01.684Z,96089
2023-02-19T09:00:10.333Z,96075
2023-02-19T09:01:19.205Z,96079
2023-02-19T09:02:28.705Z,96081
2023-02-19T09:03:36.397Z,96084
2023-02-19T09:04:44.054Z,96095
2023-02-19T09:05:51.738Z,96088
2023-02-19T09:07:00.406Z,96099
2023-02-19T09:08:09.075Z,96084
2023-02-19T09:09:17.722Z,96092
2023-02-19T09:10:26.446Z,96100
2023-02-19T09:11:36.158Z,96094
2023-02-19T09:12:43.891Z,96101
2023-02-19T09:13:51.534Z,96097
2023-02-19T09:15:01.196Z,96099
2023-02-19T09:16:10.908Z,96086
2023-02-19T09:17:20.595Z,96087
2023-02-19T09:18:29.279Z,96082
2023-02-19T09:19:37.947Z,96092
2023-02-19T09:20:47.636Z,96087
2023-02-19T09:21:56.306Z,96084
2023-02-19T09:23:04.971Z,96099
2023-02-19T09:24:14.671Z,96089
2023-02-19T09:25:22.352Z,96102
2023-02-19T09:26:32.095Z,96106
2023-02-19T09:27:41.761Z,96115
2023-02-19T09:28:50.445Z,96097
2023-02-19T09:30:00.193Z,96099
2023-02-19T09:31:08.999Z,96098
2023-02-19T09:32:19.229Z,96095
2023-02-19T09:33:28.181Z,96111
2023-02-19T09:34:35.809Z,96135
2023-02-19T09:35:44.482Z,96107
2023-02-19T09:36:54.183Z,96102
2023-02-19T09:38:02.827Z,96104
2023-02-19T09:39:12.587Z,96117
2023-02-19T09:40:20.177Z,96108
2023-02-19T09:41:28.856Z,96098
2023-02-19T09:42:38.531Z,96106
2023-02-19T09:43:49.860Z,96107
2023-02-19T09:44:59.533Z,96099
2023-02-19T09:46:08.247Z,96104
2023-02-19T09:47:16.925Z,96097
2023-02-19T09:48:26.574Z,96095
2023-02-19T09:49:34.234Z,96119
2023-02-19T09:50:43.877Z,96096
2023-02-19T09:51:53.598Z,96121
2023-02-19T09:53:02.254Z,96109
2023-02-19T09:54:10.919Z,96105
2023-02-19T09:55:20.562Z,96106
2023-02-19T09:56:29.220Z,96134
2023-02-19T09:57:38.927Z,96129
2023-02-19T09:58:47.693Z,96123
2023-02-19T09:59:57.352Z,96112
2023-02-19T10:01:06.083Z,96109
2023-02-19T10:02:15.837Z,96121
2023-02-19T10:03:25.522Z,96118
2023-02-19T10:04:35.186Z,96120
2023-02-19T10:05:43.847Z,96125
2023-02-19T10:06:53.547Z,96111
2023-02-19T10:08:02.217Z,96117
2023-02-19T10:09:11.922Z,96134
2023-02-19T10:10:19.621Z,96126
2023-02-19T10:11:29.278Z,96121
2023-02-19T10:12:38.959Z,96100
2023-02-19T10:13:46.621Z,96113
2023-02-19T10:14:55.280Z,96119
2023-02-19T10:16:03.952Z,96111
2023-02-19T10:17:13.604Z,96121
2023-02-19T10:18:23.274Z,96136
2023-02-19T10:19:32.922Z,96131
2023-02-19T10:20:42.705Z,96114
2023-02-19T10:21:52.388Z,96127
2023-02-19T10:23:01.033Z,96133
2023-02-19T10:24:09.689Z,96122
2023-02-19T10:25:18.346Z,96123
2023-02-19T10:26:26.984Z,96129
2023-02-19T10:27:36.674Z,96125
2023-02-19T10:28:45.337Z,96133
2023-02-19T10:29:53.989Z,96113
2023-02-19T10:31:03.675Z,96113
2023-02-19T10:32:11.364Z,96116
2023-02-19T10:33:20.988Z,96124
2023-02-19T10:34:29.665Z,96132
2023-02-19T10:35:39.395Z,96120
2023-02-19T10:36:49.044Z,96133
2023-02-19T10:37:58.719Z,96142
2023-02-19T10:39:08.448Z,96120
2023-02-19T10:40:18.232Z,96116
2023-02-19T10:41:25.802Z,96133
2023-02-19T10:42:35.466Z,96138
2023-02-19T10:43:44.146Z,96135
2023-02-19T10:44:53.849Z,96138
2023-02-19T10:46:03.503Z,96127
2023-02-19T10:47:12.174Z,96128
2023-02-19T10:48:20.847Z,96123
2023-02-19T10:49:30.536Z,96121
2023-02-19T10:50:40.174Z,96137
2023-02-19T10:51:48.866Z,96128
2023-02-19T10:52:57.520Z,96138
2023-02-19T10:54:05.173Z,96121
2023-02-19T10:55:14.866Z,96121
2023-02-19T10:56:22.543Z,96098
2023-02-19T10:57:32.230Z,96129
2023-02-19T10:58:40.913Z,96110
2023-02-19T10:59:49.570Z,96117
2023-02-19T11:00:58.238Z,96130
2023-02-19T11:02:07.881Z,96136
2023-02-19T11:03:17.566Z,96120
2023-02-19T11:04:27.326Z,96129
2023-02-19T11:05:35.902Z,96121
2023-02-19T11:06:44.546Z,96117
2023-02-19T11:07:54.372Z,96126
2023-02-19T11:09:02.147Z,96131
2023-02-19T11:10:10.789Z,96135
2023-02-19T11:11:19.495Z,96131
2023-02-19T11:12:29.143Z,96112
2023-02-19T11:13:38.845Z,96120
2023-02-19T11:14:48.557Z,96122
2023-02-19T11:15:57.335Z,96117
2023-02-19T11:17:06.988Z,96109
2023-02-19T11:18:15.694Z,96106
2023-02-19T11:19:24.378Z,96112
2023-02-19T11:20:33.032Z,96109
2023-02-19T11:21:42.678Z,96114
2023-02-19T11:22:52.348Z,96120
2023-02-19T11:24:00.821Z,96116
2023-02-19T11:25:08.748Z,96130
2023-02-19T11:26:18.440Z,96122
2023-02-19T11:27:26.118Z,96125
2023-02-19T11:28:35.891Z,96127
2023-02-19T11:29:44.523Z,96126
2023-02-19T11:30:53.189Z,96121
2023-02-19T11:32:02.916Z,96140
2023-02-19T11:33:11.543Z,96125
2023-02-19T11:34:20.208Z,96134
2023-02-19T11:35:29.876Z,96126
2023-02-19T11:36:38.530Z,96136
2023-02-19T11:37:47.392Z,96132
2023-02-19T11:38:57.180Z,96132
2023-02-19T11:40:05.840Z,96136
2023-02-19T11:41:15.492Z,96123
2023-02-19T11:42:23.157Z,96135
2023-02-19T11:43:31.889Z,96125
2023-02-19T11:44:41.558Z,96129
2023-02-19T11:45:49.217Z,96138
2023-02-19T11:46:57.881Z,96128
2023-02-19T11:48:06.535Z,96130
2023-02-19T11:49:15.248Z,96138
2023-02-19T11:50:24.943Z,96124
2023-02-19T11:51:34.691Z,96123
2023-02-19T11:52:44.345Z,96117
2023-02-19T11:53:54.052Z,96120
2023-02-19T11:55:03.706Z,96120
2023-02-19T11:56:13.446Z,96125
2023-02-19T11:57:29.176Z,96131
2023-02-19T11:58:38.898Z,96129
2023-02-19T11:59:48.565Z,96140
2023-02-19T12:00:56.214Z,96135
2023-02-19T12:02:04.942Z,96142
2023-02-19T12:03:14.598Z,96143
2023-02-19T12:04:22.333Z,96135
2023-02-19T12:05:32.021Z,96145
2023-02-19T12:06:41.716Z,96138
2023-02-19T12:07:50.420Z,96139
2023-02-19T12:09:00.180Z,96143
2023-02-19T12:10:08.887Z,96129
2023-02-19T12:11:18.630Z,96143
2023-02-19T12:12:28.345Z,96143
2023-02-19T12:13:36.096Z,96137
2023-02-19T12:14:44.864Z,96140
2023-02-19T12:17:03.295Z,96135
2023-02-19T12:18:13.070Z,96139
2023-02-19T12:19:20.761Z,96148
2023-02-19T12:20:31.752Z,96137
2023-02-19T12:21:40.142Z,96139
2023-02-19T12:22:49.840Z,96138
2023-02-19T12:23:58.644Z,96145
2023-02-19T12:25:07.450Z,96142
2023-02-19T12:26:16.150Z,96129
2023-02-19T12:27:24.865Z,96134
2023-02-19T12:28:33.624Z,96134
2023-02-19T12:29:42.306Z,96122
2023-02-19T12:30:52.073Z,96138
2023-02-19T12:32:01.769Z,96139
2023-02-19T12:33:10.396Z,96140
2023-02-19T12:34:19.111Z,96145
2023-02-19T12:35:28.805Z,96140
2023-02-19T12:36:38.483Z,96146
2023-02-19T12:37:46.177Z,96144
2023-02-19T12:38:54.890Z,96143
2023-02-19T12:40:04.580Z,96142
2023-02-19T12:41:12.222Z,96140
2023-02-19T12:42:20.929Z,96148
2023-02-19T12:43:29.610Z,96158
2023-02-19T12:44:38.361Z,96153
2023-02-19T12:45:48.110Z,96151
2023-02-19T12:46:55.734Z,96161
2023-02-19T12:48:04.373Z,96162
2023-02-19T12:49:14.066Z,96159
2023-02-19T12:50:22.728Z,96158
2023-02-19T12:51:31.433Z,96186
2023-02-19T12:52:41.133Z,96157
2023-02-19T12:53:49.839Z,96166
2023-02-19T12:54:59.519Z,96158
2023-02-19T12:56:09.431Z,96170
2023-02-19T12:57:18.913Z,96182
2023-02-19T12:58:28.649Z,96184
2023-02-19T12:59:36.354Z,96181
2023-02-19T13:00:46.049Z,96195
2023-02-19T13:01:54.689Z,96174
2023-02-19T13:03:04.524Z,96178
2023-02-19T13:04:14.232Z,96177
2023-02-19T13:05:22.970Z,96175
2023-02-19T13:06:31.645Z,96187
2023-02-19T13:07:41.348Z,96174
2023-02-19T13:09:05.216Z,96175
2023-02-19T13:10:00.771Z,96181
2023-02-19T13:11:10.724Z,96184
2023-02-19T13:12:19.210Z,96171
2023-02-19T13:13:28.964Z,96186
2023-02-19T13:14:37.687Z,96172
2023-02-19T13:15:46.366Z,96174
2023-02-19T13:16:56.179Z,96173
2023-02-19T13:18:04.735Z,96175
2023-02-19T13:19:14.445Z,96177
2023-02-19T13:20:23.174Z,96186
2023-02-19T13:21:32.495Z,96182
2023-02-19T13:22:40.465Z,96197
2023-02-19T13:23:50.203Z,96174
2023-02-19T13:24:58.923Z,96178
2023-02-19T13:26:08.618Z,96180
2023-02-19T13:27:18.281Z,96191
2023-02-19T13:28:27.946Z,96176
2023-02-19T13:29:36.641Z,96171
2023-02-19T13:30:45.400Z,96179
2023-02-19T13:31:55.190Z,96175
2023-02-19T13:33:04.722Z,96183
2023-02-19T13:34:14.470Z,96183
2023-02-19T13:35:24.256Z,96175
2023-02-19T13:36:32.887Z,96169
2023-02-19T13:37:42.729Z,96184
2023-02-19T13:38:52.424Z,96164
2023-02-19T13:40:01.135Z,96168
2023-02-19T13:41:11.090Z,96151
2023-02-19T13:42:20.521Z,96163
2023-02-19T13:43:29.263Z,96147
2023-02-19T13:44:38.932Z,96161
2023-02-19T13:45:48.749Z,96151
2023-02-19T13:46:58.403Z,96168
2023-02-19T13:48:07.126Z,96153
2023-02-19T13:49:16.807Z,96153
2023-02-19T13:50:25.537Z,96155
2023-02-19T13:51:34.194Z,96157
2023-02-19T13:52:43.875Z,96169
2023-02-19T13:53:51.583Z,96172
2023-02-19T13:55:01.398Z,96168
2023-02-19T13:56:11.088Z,96171
2023-02-19T13:57:19.751Z,96167
2023-02-19T13:58:29.462Z,96178
2023-02-19T13:59:38.269Z,96178
2023-02-19T14:00:49.369Z,96181
2023-02-19T14:01:57.742Z,96184
2023-02-19T14:03:06.414Z,96183
2023-02-19T14:04:15.082Z,96189
2023-02-19T14:05:24.814Z,96170
2023-02-19T14:06:32.489Z,96178
2023-02-19T14:07:42.188Z,96164
2023-02-19T14:08:51.859Z,96174
2023-02-19T14:10:00.573Z,96176
2023-02-19T14:11:10.636Z,96184
2023-02-19T14:12:19.029Z,96174
2023-02-19T14:13:27.694Z,96188
2023-02-19T14:14:37.389Z,96191
2023-02-19T14:15:46.159Z,96190
2023-02-19T14:16:55.819Z,96185
2023-02-19T14:18:05.514Z,96193
2023-02-19T14:19:15.218Z,96228
2023-02-19T14:20:25.013Z,96209
2023-02-19T14:21:33.725Z,96208
2023-02-19T14:22:42.423Z,96195
2023-02-19T14:23:52.074Z,96198
2023-02-19T14:25:00.847Z,96195
2023-02-19T14:26:09.606Z,96191
2023-02-19T14:27:18.280Z,96195
2023-02-19T14:28:26.989Z,96192
2023-02-19T14:29:36.671Z,96195
2023-02-19T14:30:46.423Z,96196
2023-02-19T14:31:56.225Z,96190
2023-02-19T14:33:10.854Z,96192
2023-02-19T14:34:14.554Z,96191
2023-02-19T14:35:23.286Z,96202
2023-02-19T14:36:31.994Z,96203
2023-02-19T14:37:40.706Z,96206
2023-02-19T14:38:49.392Z,96194
2023-02-19T14:39:57.082Z,96205
2023-02-19T14:41:06.817Z,96203
2023-02-19T14:42:16.500Z,96202
2023-02-19T14:43:24.166Z,96200
2023-02-19T14:44:32.845Z,96196
2023-02-19T14:45:41.572Z,96202
2023-02-19T14:46:50.272Z,96194
2023-02-19T14:47:59.951Z,96205
2023-02-19T14:49:07.613Z,96193
2023-02-19T14:50:15.291Z,96199